Westview, New York
Current Conditions -  °F | °C
As of 12:23 PM on Thursday 27 Nov 2014 (Local Time) from KBGM Reporting Station
Light Snow Light Snow  
Wind Chill: 21°   Ceiling: 800
Heat Index: 28°   Visibility: 2mi
Dew Point: 24°   Wind: 7mph
Humidity: 85%   Direction: 280°W
Pressure: 29.94"   Gusts: NA
Location:  42.1759°N, 75.9402°W
Report Text: KBGM 271723Z 28006KT 2SM -SN BR BKN008 OVC014 M02/M04 A2994 RMK AO2 CIG 006V011 P0000 T10221044 $
Loading
Personal Weather Stations






























Interactive Weather Map New forecast layout! Learn more

10-Day Weather Forecast

Advertisements
Track Severe Weather on mobile